createdAt,value
2023-05-16T00:01:12.801Z,2.72
2023-05-16T00:04:01.342Z,2.80
2023-05-16T00:06:51.533Z,2.35
2023-05-16T00:09:39.965Z,2.75
2023-05-16T00:12:29.410Z,3.72
2023-05-16T00:15:18.017Z,2.67
2023-05-16T00:18:06.745Z,2.55
2023-05-16T00:20:55.496Z,2.13
2023-05-16T00:23:45.466Z,3.50
2023-05-16T00:26:34.263Z,4.03
2023-05-16T00:29:24.391Z,3.45
2023-05-16T00:32:13.368Z,2.92
2023-05-16T00:35:02.152Z,2.97
2023-05-16T00:37:51.019Z,2.90
2023-05-16T00:40:41.127Z,3.30
2023-05-16T00:43:29.803Z,3.25
2023-05-16T00:46:18.554Z,3.00
2023-05-16T00:49:07.400Z,3.42
2023-05-16T00:51:56.089Z,3.30
2023-05-16T00:54:44.836Z,3.25
2023-05-16T00:57:34.967Z,2.97
2023-05-16T01:00:23.819Z,3.20
2023-05-16T01:03:12.993Z,3.20
2023-05-16T01:06:02.155Z,3.28
2023-05-16T01:08:51.056Z,3.10
2023-05-16T01:11:44.621Z,3.03
2023-05-16T01:14:39.492Z,3.10
2023-05-16T01:17:31.431Z,3.03
2023-05-16T01:20:26.169Z,3.40
2023-05-16T01:23:30.309Z,3.72
2023-05-16T01:26:21.486Z,3.45
2023-05-16T01:29:10.577Z,3.88
2023-05-16T01:31:59.623Z,3.70
2023-05-16T01:34:48.453Z,3.35
2023-05-16T01:37:38.540Z,3.55
2023-05-16T01:40:31.504Z,3.22
2023-05-16T01:43:25.532Z,3.10
2023-05-16T01:46:15.336Z,3.55
2023-05-16T01:49:07.793Z,4.18
2023-05-16T01:51:59.002Z,3.25
2023-05-16T01:54:49.807Z,3.65
2023-05-16T01:57:38.611Z,3.70
2023-05-16T02:00:28.677Z,3.30
2023-05-16T02:03:17.580Z,4.47
2023-05-16T02:06:06.513Z,3.78
2023-05-16T02:08:55.221Z,2.88
2023-05-16T02:11:44.087Z,3.97
2023-05-16T02:14:32.900Z,3.80
2023-05-16T02:17:23.069Z,4.20
2023-05-16T02:20:13.128Z,4.30
2023-05-16T02:23:03.203Z,3.85
2023-05-16T02:25:51.929Z,3.88
2023-05-16T02:28:41.046Z,4.85
2023-05-16T02:31:30.230Z,3.88
2023-05-16T02:34:20.470Z,4.57
2023-05-16T02:37:10.753Z,4.00
2023-05-16T02:40:01.247Z,4.05
2023-05-16T02:42:49.981Z,4.68
2023-05-16T02:45:38.708Z,4.47
2023-05-16T02:48:27.452Z,3.78
2023-05-16T02:51:17.565Z,4.20
2023-05-16T02:54:09.344Z,4.32
2023-05-16T02:56:58.070Z,4.03
2023-05-16T02:59:46.826Z,4.50
2023-05-16T03:02:35.694Z,3.83
2023-05-16T03:05:26.802Z,3.65
2023-05-16T03:08:17.415Z,3.47
2023-05-16T03:11:06.125Z,3.88
2023-05-16T03:13:54.863Z,3.60
2023-05-16T03:16:44.004Z,3.17
2023-05-16T03:19:32.757Z,3.58
2023-05-16T03:22:21.675Z,4.00
2023-05-16T03:25:11.941Z,5.00
2023-05-16T03:28:00.638Z,4.07
2023-05-16T03:30:49.330Z,4.43
2023-05-16T03:33:38.079Z,4.03
2023-05-16T03:36:26.988Z,4.72
2023-05-16T03:39:15.762Z,4.38
2023-05-16T03:42:06.110Z,5.20
2023-05-16T03:44:54.852Z,5.18
2023-05-16T03:47:43.590Z,4.75
2023-05-16T03:50:32.327Z,3.60
2023-05-16T03:53:21.074Z,3.60
2023-05-16T03:56:09.815Z,3.47
2023-05-16T03:58:59.931Z,3.60
2023-05-16T04:01:48.763Z,3.70
2023-05-16T04:04:37.618Z,4.18
2023-05-16T04:07:27.457Z,3.00
2023-05-16T04:10:16.522Z,2.58
2023-05-16T04:13:05.545Z,2.78
2023-05-16T04:15:55.574Z,2.17
2023-05-16T04:18:44.536Z,1.58
2023-05-16T04:21:33.462Z,1.05
2023-05-16T04:24:26.324Z,1.13
2023-05-16T04:27:15.121Z,1.05
2023-05-16T04:30:04.032Z,0.95
2023-05-16T04:32:54.158Z,0.75
2023-05-16T04:35:43.385Z,1.02
2023-05-16T04:38:32.161Z,0.77
2023-05-16T04:41:21.951Z,1.77
2023-05-16T04:44:11.222Z,1.48
2023-05-16T04:46:59.925Z,2.35
2023-05-16T04:49:49.980Z,1.00
2023-05-16T04:52:39.241Z,0.77
2023-05-16T04:55:28.218Z,0.70
2023-05-16T04:58:17.117Z,0.95
2023-05-16T05:01:06.286Z,0.73
2023-05-16T05:03:55.205Z,0.65
2023-05-16T05:06:45.393Z,0.80
2023-05-16T05:09:34.100Z,0.90
2023-05-16T05:12:22.822Z,0.90
2023-05-16T05:15:11.707Z,0.90
2023-05-16T05:18:00.573Z,0.75
2023-05-16T05:20:49.425Z,0.82
2023-05-16T05:23:39.595Z,0.90
2023-05-16T05:26:29.064Z,0.88
2023-05-16T05:29:17.766Z,0.85
2023-05-16T05:32:06.938Z,0.85
2023-05-16T05:34:55.977Z,0.93
2023-05-16T05:37:44.722Z,1.17
2023-05-16T05:40:35.099Z,0.98
2023-05-16T05:43:23.843Z,1.30
2023-05-16T05:46:12.492Z,1.25
2023-05-16T05:49:01.182Z,1.00
2023-05-16T05:51:51.957Z,1.25
2023-05-16T05:54:40.399Z,1.45
2023-05-16T05:57:30.238Z,1.35
2023-05-16T06:00:19.076Z,1.10
2023-05-16T06:03:07.607Z,1.08
2023-05-16T06:05:56.273Z,1.17
2023-05-16T06:08:44.774Z,1.00
2023-05-16T06:11:33.531Z,1.15
2023-05-16T06:14:23.382Z,1.17
2023-05-16T06:17:11.949Z,1.20
2023-05-16T06:20:00.424Z,1.20
2023-05-16T06:22:49.197Z,2.30
2023-05-16T06:25:37.617Z,1.23
2023-05-16T06:28:26.100Z,1.42
2023-05-16T06:31:16.081Z,1.30
2023-05-16T06:34:04.606Z,1.38
2023-05-16T06:36:53.032Z,1.10
2023-05-16T06:39:41.467Z,1.27
2023-05-16T06:42:29.928Z,1.10
2023-05-16T06:45:19.120Z,1.23
2023-05-16T06:48:09.692Z,1.13
2023-05-16T06:50:58.468Z,1.17
2023-05-16T06:53:46.978Z,1.17
2023-05-16T06:56:35.527Z,1.05
2023-05-16T06:59:24.594Z,1.13
2023-05-16T07:02:13.635Z,1.30
2023-05-16T07:05:03.558Z,1.40
2023-05-16T07:07:52.065Z,1.80
2023-05-16T07:10:40.664Z,1.83
2023-05-16T07:13:29.510Z,1.20
2023-05-16T07:16:18.031Z,1.58
2023-05-16T07:19:06.542Z,1.23
2023-05-16T07:21:56.491Z,1.33
2023-05-16T07:24:45.337Z,0.90
2023-05-16T07:27:33.938Z,1.30
2023-05-16T07:30:22.731Z,0.88
2023-05-16T07:33:11.571Z,1.48
2023-05-16T07:36:08.402Z,0.95
2023-05-16T07:39:05.936Z,1.38
2023-05-16T07:41:54.362Z,1.15
2023-05-16T07:44:42.859Z,1.35
2023-05-16T07:47:31.326Z,1.33
2023-05-16T07:50:19.893Z,1.10
2023-05-16T07:53:08.382Z,1.13
2023-05-16T07:55:58.335Z,1.65
2023-05-16T07:58:48.853Z,1.20
2023-05-16T08:01:37.492Z,1.20
2023-05-16T08:04:25.982Z,2.53
2023-05-16T08:07:14.897Z,1.20
2023-05-16T08:10:03.587Z,2.00
2023-05-16T08:12:53.858Z,2.00
2023-05-16T08:15:42.857Z,1.25
2023-05-16T08:18:31.514Z,1.10
2023-05-16T08:21:20.026Z,1.13
2023-05-16T08:24:11.831Z,1.30
2023-05-16T08:27:00.581Z,1.23
2023-05-16T08:29:50.477Z,1.17
2023-05-16T08:32:39.161Z,1.30
2023-05-16T08:35:27.900Z,1.35
2023-05-16T08:38:16.778Z,1.08
2023-05-16T08:41:06.325Z,1.42
2023-05-16T08:43:55.276Z,1.25
2023-05-16T08:46:49.208Z,1.42
2023-05-16T08:49:40.435Z,1.35
2023-05-16T08:52:30.175Z,1.75
2023-05-16T08:55:20.402Z,1.23
2023-05-16T08:58:09.394Z,1.45
2023-05-16T09:00:58.057Z,1.40
2023-05-16T09:03:48.921Z,1.30
2023-05-16T09:06:37.525Z,1.45
2023-05-16T09:09:26.098Z,1.20
2023-05-16T09:12:14.563Z,1.67
2023-05-16T09:15:04.200Z,1.08
2023-05-16T09:17:52.767Z,1.65
2023-05-16T09:20:50.233Z,1.20
2023-05-16T09:23:38.808Z,1.50
2023-05-16T09:26:27.963Z,1.48
2023-05-16T09:29:16.448Z,1.88
2023-05-16T09:32:12.333Z,1.65
2023-05-16T09:35:00.898Z,1.83
2023-05-16T09:37:53.114Z,1.50
2023-05-16T09:40:42.970Z,1.92
2023-05-16T09:43:31.496Z,2.50
2023-05-16T09:46:20.504Z,1.20
2023-05-16T09:49:12.767Z,1.80
2023-05-16T09:52:03.010Z,1.35
2023-05-16T09:54:53.012Z,1.60
2023-05-16T09:57:41.523Z,1.52
2023-05-16T10:00:34.287Z,1.45
2023-05-16T10:03:23.336Z,1.48
2023-05-16T10:06:13.630Z,1.67
2023-05-16T10:09:03.105Z,1.63
2023-05-16T10:11:54.375Z,1.60
2023-05-16T10:14:43.325Z,1.25
2023-05-16T10:17:34.684Z,1.95
2023-05-16T10:20:24.160Z,1.80
2023-05-16T10:23:18.669Z,2.35
2023-05-16T10:26:07.311Z,1.60
2023-05-16T10:28:57.504Z,1.70
2023-05-16T10:31:46.268Z,1.80
2023-05-16T10:34:35.359Z,1.70
2023-05-16T10:37:24.850Z,2.00
2023-05-16T10:40:14.196Z,2.25
2023-05-16T10:43:04.143Z,2.20
2023-05-16T10:45:57.869Z,2.30
2023-05-16T10:48:47.063Z,2.10
2023-05-16T10:51:38.213Z,1.90
2023-05-16T10:54:36.220Z,1.92
2023-05-16T10:57:25.377Z,2.15
2023-05-16T11:00:23.838Z,2.03
2023-05-16T11:03:25.220Z,2.33
2023-05-16T11:06:14.282Z,2.42
2023-05-16T11:09:06.754Z,2.60
2023-05-16T11:12:03.955Z,2.05
2023-05-16T11:14:53.428Z,2.38
2023-05-16T11:17:46.113Z,2.28
2023-05-16T11:20:37.575Z,2.40
2023-05-16T11:23:27.534Z,2.20
2023-05-16T11:26:16.294Z,2.22
2023-05-16T11:29:04.941Z,3.35
2023-05-16T11:31:54.332Z,3.00
2023-05-16T11:34:43.282Z,2.85
2023-05-16T11:37:33.253Z,2.83
2023-05-16T11:40:22.217Z,2.33
2023-05-16T11:43:10.976Z,2.60
2023-05-16T11:46:00.085Z,2.55
2023-05-16T11:48:48.630Z,2.85
2023-05-16T11:51:39.502Z,2.58
2023-05-16T11:54:29.539Z,2.85
2023-05-16T11:57:18.266Z,2.30
2023-05-16T12:00:15.795Z,2.20
2023-05-16T12:03:06.634Z,2.47
2023-05-16T12:05:57.188Z,1.92
2023-05-16T12:08:51.762Z,2.33
2023-05-16T12:11:42.540Z,2.03
2023-05-16T12:14:31.265Z,2.65
2023-05-16T12:17:22.261Z,2.72
2023-05-16T12:20:13.674Z,2.42
2023-05-16T12:23:02.354Z,2.35
2023-05-16T12:25:51.172Z,2.53
2023-05-16T12:28:41.165Z,2.78
2023-05-16T12:31:32.496Z,2.40
2023-05-16T12:34:23.228Z,2.50
2023-05-16T12:37:11.684Z,2.72
2023-05-16T12:40:01.782Z,3.17
2023-05-16T12:42:52.287Z,2.53
2023-05-16T12:45:42.939Z,2.63
2023-05-16T12:48:35.346Z,2.70
2023-05-16T12:51:24.191Z,2.75
2023-05-16T12:54:13.846Z,3.17
2023-05-16T12:57:02.329Z,3.05
2023-05-16T12:59:51.012Z,3.15
2023-05-16T13:02:41.150Z,3.05
2023-05-16T13:05:29.927Z,3.83
2023-05-16T13:08:18.410Z,3.28
2023-05-16T13:11:06.955Z,3.25
2023-05-16T13:13:55.404Z,4.00
2023-05-16T13:16:44.009Z,3.67
2023-05-16T13:19:33.950Z,5.07
2023-05-16T13:22:22.472Z,4.32
2023-05-16T13:25:11.914Z,4.30
2023-05-16T13:28:00.522Z,4.40
2023-05-16T13:30:49.275Z,4.55
2023-05-16T13:33:37.861Z,4.30
2023-05-16T13:36:28.663Z,4.65
2023-05-16T13:39:19.888Z,4.93
2023-05-16T13:42:08.695Z,4.30
2023-05-16T13:44:59.924Z,4.55
2023-05-16T13:47:48.515Z,5.57
2023-05-16T13:53:33.437Z,3.90
2023-05-16T13:56:22.071Z,4.18
2023-05-16T13:59:15.077Z,3.08
2023-05-16T14:02:07.053Z,3.72
2023-05-16T14:04:55.622Z,4.60
2023-05-16T14:07:46.700Z,4.00
2023-05-16T14:10:36.852Z,3.88
2023-05-16T14:13:25.532Z,3.17
2023-05-16T14:16:14.002Z,3.22
2023-05-16T14:19:02.620Z,3.13
2023-05-16T14:21:51.118Z,3.03
2023-05-16T14:24:39.644Z,2.55
2023-05-16T14:27:29.540Z,2.78
2023-05-16T14:30:18.103Z,3.28
2023-05-16T14:33:07.207Z,2.75
2023-05-16T14:35:55.808Z,3.45
2023-05-16T14:38:44.311Z,2.95
2023-05-16T14:41:32.761Z,2.75
2023-05-16T14:44:24.722Z,3.03
2023-05-16T14:47:13.754Z,3.25
2023-05-16T14:50:02.234Z,4.13
2023-05-16T14:52:50.652Z,4.20
2023-05-16T14:55:39.107Z,4.50
2023-05-16T14:58:27.719Z,5.15
2023-05-16T15:01:17.668Z,5.03
2023-05-16T15:04:06.292Z,5.53
2023-05-16T15:06:54.947Z,5.63
2023-05-16T15:09:43.449Z,4.97
2023-05-16T15:12:31.899Z,5.75
2023-05-16T15:15:20.533Z,5.97
2023-05-16T15:18:11.270Z,5.82
2023-05-16T15:20:59.824Z,5.60
2023-05-16T15:23:49.999Z,5.95
2023-05-16T15:26:40.246Z,5.05
2023-05-16T15:29:28.695Z,4.60
2023-05-16T15:32:17.871Z,3.97
2023-05-16T15:35:08.806Z,5.65
2023-05-16T15:37:59.788Z,4.70
2023-05-16T15:40:55.039Z,4.97
2023-05-16T15:43:46.600Z,5.22
2023-05-16T15:46:35.165Z,4.93
2023-05-16T15:49:23.703Z,6.15
2023-05-16T15:52:13.621Z,5.43
2023-05-16T15:55:02.043Z,5.13
2023-05-16T15:57:50.554Z,5.15
2023-05-16T16:00:40.539Z,6.07
2023-05-16T16:03:29.140Z,5.03
2023-05-16T16:06:17.693Z,4.80
2023-05-16T16:09:08.135Z,4.80
2023-05-16T16:11:56.753Z,4.57
2023-05-16T16:14:45.215Z,4.40
2023-05-16T16:17:33.751Z,5.63
2023-05-16T16:20:22.281Z,5.32
2023-05-16T16:23:10.815Z,5.65
2023-05-16T16:26:01.092Z,4.68
2023-05-16T16:28:50.256Z,4.72
2023-05-16T16:31:38.862Z,4.40
2023-05-16T16:34:27.356Z,5.38
2023-05-16T16:37:15.763Z,4.80
2023-05-16T16:40:04.972Z,4.72
2023-05-16T16:42:54.790Z,4.15
2023-05-16T16:45:43.291Z,4.70
2023-05-16T16:48:34.172Z,4.70
2023-05-16T16:51:22.752Z,4.45
2023-05-16T16:54:11.273Z,4.40
2023-05-16T16:57:01.370Z,3.97
2023-05-16T16:59:51.291Z,3.88
2023-05-16T17:02:39.874Z,3.50
2023-05-16T17:05:28.621Z,4.70
2023-05-16T17:08:17.274Z,4.25
2023-05-16T17:11:07.580Z,5.07
2023-05-16T17:13:59.343Z,4.25
2023-05-16T17:16:49.402Z,5.20
2023-05-16T17:19:37.912Z,4.47
2023-05-16T17:22:26.562Z,4.88
2023-05-16T17:25:15.276Z,4.60
2023-05-16T17:28:03.909Z,4.03
2023-05-16T17:30:52.401Z,4.55
2023-05-16T17:33:42.276Z,4.47
2023-05-16T17:36:31.046Z,5.28
2023-05-16T17:39:20.937Z,5.50
2023-05-16T17:42:10.874Z,5.22
2023-05-16T17:45:03.528Z,5.25
2023-05-16T17:47:52.046Z,4.70
2023-05-16T17:50:43.390Z,5.78
2023-05-16T17:53:31.941Z,4.72
2023-05-16T17:56:20.430Z,5.53
2023-05-16T17:59:09.807Z,5.25
2023-05-16T18:01:58.639Z,5.63
2023-05-16T18:04:47.137Z,5.68
2023-05-16T18:07:37.237Z,5.53
2023-05-16T18:10:29.468Z,5.03
2023-05-16T18:13:23.888Z,5.13
2023-05-16T18:16:12.705Z,4.97
2023-05-16T18:19:01.522Z,5.80
2023-05-16T18:21:50.091Z,4.97
2023-05-16T18:24:40.053Z,5.53
2023-05-16T18:27:28.789Z,5.28
2023-05-16T18:30:17.648Z,5.38
2023-05-16T18:33:07.308Z,5.25
2023-05-16T18:35:55.882Z,4.22
2023-05-16T18:38:44.368Z,3.70
2023-05-16T18:41:34.269Z,3.20
2023-05-16T18:44:22.727Z,3.70
2023-05-16T18:47:11.378Z,2.90
2023-05-16T18:49:59.859Z,3.03
2023-05-16T18:52:48.512Z,3.60
2023-05-16T18:55:37.125Z,4.28
2023-05-16T18:58:27.113Z,3.60
2023-05-16T19:01:15.662Z,4.38
2023-05-16T19:04:04.353Z,4.90
2023-05-16T19:06:56.133Z,4.57
2023-05-16T19:09:46.921Z,4.60
2023-05-16T19:12:35.533Z,3.75
2023-05-16T19:15:25.702Z,3.85
2023-05-16T19:18:14.474Z,3.13
2023-05-16T19:21:03.567Z,3.20
2023-05-16T19:23:52.378Z,2.85
2023-05-16T19:26:41.179Z,2.53
2023-05-16T19:29:30.058Z,2.60
2023-05-16T19:32:20.337Z,2.67
2023-05-16T19:35:09.387Z,2.13
2023-05-16T19:37:58.234Z,2.58
2023-05-16T19:40:47.145Z,2.60
2023-05-16T19:43:36.051Z,1.85
2023-05-16T19:46:24.902Z,2.22
2023-05-16T19:49:19.513Z,1.90
2023-05-16T19:52:09.265Z,1.70
2023-05-16T19:54:58.050Z,1.50
2023-05-16T19:57:46.766Z,2.08
2023-05-16T20:00:35.493Z,2.00
2023-05-16T20:03:24.517Z,1.40
2023-05-16T20:06:14.713Z,1.77
2023-05-16T20:09:03.553Z,1.90
2023-05-16T20:11:53.548Z,1.40
2023-05-16T20:14:42.323Z,1.40
2023-05-16T20:17:31.162Z,1.48
2023-05-16T20:20:19.943Z,1.70
2023-05-16T20:23:10.099Z,1.55
2023-05-16T20:25:58.876Z,1.88
2023-05-16T20:28:47.781Z,1.60
2023-05-16T20:31:36.528Z,1.92
2023-05-16T20:34:25.272Z,2.08
2023-05-16T20:37:14.014Z,1.35
2023-05-16T20:40:04.226Z,1.85
2023-05-16T20:42:53.218Z,1.52
2023-05-16T20:45:41.926Z,2.00
2023-05-16T20:48:30.855Z,1.63
2023-05-16T20:51:19.778Z,1.67
2023-05-16T20:54:08.622Z,1.60
2023-05-16T20:56:58.833Z,1.50
2023-05-16T20:59:47.632Z,1.40
2023-05-16T21:02:36.423Z,1.40
2023-05-16T21:05:26.211Z,1.55
2023-05-16T21:08:15.084Z,1.55
2023-05-16T21:11:03.852Z,1.95
2023-05-16T21:13:54.066Z,1.90
2023-05-16T21:16:42.865Z,1.88
2023-05-16T21:19:34.852Z,1.85
2023-05-16T21:22:23.686Z,1.83
2023-05-16T21:25:12.437Z,1.77
2023-05-16T21:28:01.620Z,1.85
2023-05-16T21:30:51.711Z,1.77
2023-05-16T21:33:40.566Z,2.28
2023-05-16T21:36:29.319Z,2.53
2023-05-16T21:39:18.023Z,2.10
2023-05-16T21:42:07.015Z,2.00
2023-05-16T21:44:55.800Z,2.00
2023-05-16T21:47:46.047Z,2.13
2023-05-16T21:50:34.896Z,1.83
2023-05-16T21:53:25.125Z,2.63
2023-05-16T21:56:13.907Z,2.20
2023-05-16T21:59:02.692Z,2.00
2023-05-16T22:01:51.555Z,1.70
2023-05-16T22:04:41.734Z,2.10
2023-05-16T22:07:30.690Z,2.25
2023-05-16T22:10:20.693Z,2.40
2023-05-16T22:13:09.447Z,2.22
2023-05-16T22:16:04.460Z,2.25
2023-05-16T22:18:54.186Z,1.90
2023-05-16T22:21:44.441Z,2.00
2023-05-16T22:24:33.237Z,2.47
2023-05-16T22:27:21.943Z,1.90
2023-05-16T22:30:11.036Z,2.08
2023-05-16T22:33:00.088Z,2.40
2023-05-16T22:35:48.944Z,2.42
2023-05-16T22:38:39.114Z,2.45
2023-05-16T22:41:29.096Z,2.08
2023-05-16T22:44:18.152Z,1.83
2023-05-16T22:47:07.302Z,2.20
2023-05-16T22:49:56.095Z,2.00
2023-05-16T22:52:44.856Z,1.65
2023-05-16T22:55:35.109Z,1.80
2023-05-16T22:58:23.936Z,1.42
2023-05-16T23:01:12.721Z,1.83
2023-05-16T23:04:01.962Z,1.63
2023-05-16T23:06:50.854Z,1.45
2023-05-16T23:09:39.605Z,1.30
2023-05-16T23:12:29.754Z,1.33
2023-05-16T23:15:18.489Z,1.25
2023-05-16T23:18:07.458Z,1.33
2023-05-16T23:20:56.343Z,1.50
2023-05-16T23:23:45.160Z,1.40
2023-05-16T23:26:33.912Z,1.40
2023-05-16T23:29:24.090Z,1.80
2023-05-16T23:32:12.907Z,1.63
2023-05-16T23:35:01.740Z,1.85
2023-05-16T23:37:50.581Z,2.08
2023-05-16T23:40:39.535Z,1.98
2023-05-16T23:43:28.269Z,1.90
2023-05-16T23:46:18.333Z,1.50
2023-05-16T23:49:07.162Z,1.52
2023-05-16T23:51:58.202Z,2.20
2023-05-16T23:54:47.265Z,1.63
2023-05-16T23:57:36.070Z,2.00
